Time;durP1;ratioP1;P1;durP2;ratioP2;P2;SDS_P1;SDS_P2;PMS_P1;PMS_P2;Temp;Humidity;BMP_temperature;BMP_pressure;BME280_temperature;BME280_humidity;BME280_pressure;Samples;Min_cycle;Max_cycle;Signal;HPM_P1;HPM_P2
2021/12/29 00:01:09;;;;;;;33.90;17.65;;;;;;;7.55;100.00;99927.84;5072110;28;20510;-69
2021/12/29 00:03:34;;;;;;;33.15;16.60;;;;;;;7.63;100.00;99936.66;5072366;28;20441;-70
2021/12/29 00:05:59;;;;;;;32.33;16.60;;;;;;;7.60;100.00;99936.66;5072037;28;20475;-70
2021/12/29 00:08:25;;;;;;;30.30;14.77;;;;;;;7.63;100.00;99920.88;5071935;28;20059;-70
2021/12/29 00:10:54;;;;;;;32.75;16.38;;;;;;;7.58;100.00;99950.66;5072265;28;20024;-70
2021/12/29 00:13:22;;;;;;;31.52;16.02;;;;;;;7.58;100.00;99964.69;5072116;28;20054;-69
2021/12/29 00:15:47;;;;;;;29.92;16.67;;;;;;;7.54;100.00;99972.56;5071934;28;20073;-69
2021/12/29 00:18:13;;;;;;;30.85;15.15;;;;;;;7.53;100.00;99982.22;5072407;28;20107;-70
2021/12/29 00:20:38;;;;;;;28.77;13.25;;;;;;;7.61;100.00;99992.75;5071870;28;20048;-70
2021/12/29 00:23:07;;;;;;;28.92;14.43;;;;;;;7.55;100.00;99998.00;5071671;28;20048;-70
2021/12/29 00:25:33;;;;;;;29.65;14.23;;;;;;;7.48;100.00;100008.50;5072029;28;20089;-70
2021/12/29 00:27:59;;;;;;;28.70;14.13;;;;;;;7.47;100.00;100008.47;5071916;28;20463;-69
2021/12/29 00:30:26;;;;;;;30.48;13.85;;;;;;;7.50;100.00;100009.38;5071742;28;20057;-69
2021/12/29 00:32:51;;;;;;;32.22;15.25;;;;;;;7.48;100.00;99999.72;5072839;28;20031;-69
2021/12/29 00:35:17;;;;;;;32.30;15.52;;;;;;;7.43;100.00;100012.00;5075428;28;20020;-69
2021/12/29 00:37:42;;;;;;;34.20;15.57;;;;;;;7.43;100.00;100012.00;5075567;28;20112;-70
2021/12/29 00:40:12;;;;;;;31.83;16.40;;;;;;;7.47;100.00;100019.00;5075609;28;20024;-69
2021/12/29 00:42:38;;;;;;;33.85;17.23;;;;;;;7.47;100.00;100037.41;5071622;28;20474;-69
2021/12/29 00:45:05;;;;;;;34.72;18.38;;;;;;;7.45;100.00;100041.78;5075495;28;20032;-69
2021/12/29 00:47:32;;;;;;;35.35;19.20;;;;;;;7.43;100.00;100043.53;5075365;28;20577;-69
2021/12/29 00:49:59;;;;;;;34.40;17.75;;;;;;;7.42;100.00;100047.03;5075153;28;20021;-69
2021/12/29 00:52:25;;;;;;;34.53;19.48;;;;;;;7.45;100.00;100050.53;5074971;28;20110;-70
2021/12/29 00:54:51;;;;;;;34.92;19.25;;;;;;;7.48;100.00;100054.94;5075551;28;20024;-69
2021/12/29 00:57:16;;;;;;;35.40;20.58;;;;;;;7.45;100.00;100054.94;5075011;28;20033;-69
2021/12/29 00:59:41;;;;;;;37.47;19.23;;;;;;;7.41;100.00;100056.69;5075265;28;20017;-70
2021/12/29 01:02:07;;;;;;;38.63;20.00;;;;;;;7.38;100.00;100066.28;5074027;28;20439;-69
2021/12/29 01:04:33;;;;;;;39.33;19.58;;;;;;;7.38;100.00;100067.16;5074957;28;20021;-70
2021/12/29 01:06:59;;;;;;;39.40;21.85;;;;;;;7.40;100.00;100086.47;5074927;28;20471;-70
2021/12/29 01:09:24;;;;;;;40.63;20.25;;;;;;;7.39;100.00;100074.19;5075225;28;20036;-70
2021/12/29 01:11:54;;;;;;;37.60;22.17;;;;;;;7.49;100.00;100081.25;5075006;28;20031;-70
2021/12/29 01:14:22;;;;;;;38.72;20.92;;;;;;;7.47;100.00;100072.50;5075248;28;20070;-70
2021/12/29 01:16:47;;;;;;;41.72;22.38;;;;;;;7.44;100.00;100087.34;5074898;28;20095;-70
2021/12/29 01:19:25;;;;;;;43.90;24.60;;;;;;;7.39;100.00;100104.88;5074693;28;20446;-70
2021/12/29 01:21:53;;;;;;;41.88;23.15;;;;;;;7.42;100.00;100111.03;5074561;28;20028;-70
2021/12/29 01:24:21;;;;;;;41.13;22.13;;;;;;;7.37;100.00;100101.34;5074739;28;20048;-70
2021/12/29 01:26:48;;;;;;;42.85;23.77;;;;;;;7.43;100.00;100110.16;5074588;28;20105;-70
2021/12/29 01:29:14;;;;;;;40.35;22.05;;;;;;;7.48;100.00;100115.44;5074555;28;20024;-70
2021/12/29 01:31:41;;;;;;;42.80;24.75;;;;;;;7.42;100.00;100120.66;5074531;28;20483;-70
2021/12/29 01:34:06;;;;;;;42.90;23.80;;;;;;;7.37;100.00;100133.78;5074462;28;20039;-70
2021/12/29 01:36:37;;;;;;;44.25;23.63;;;;;;;7.42;100.00;100136.44;5074277;28;20025;-70
2021/12/29 01:39:09;;;;;;;42.30;23.13;;;;;;;7.43;100.00;100154.00;5074678;28;20035;-70
2021/12/29 01:41:35;;;;;;;39.75;24.25;;;;;;;7.45;100.00;100173.28;5070538;28;20095;-70
2021/12/29 01:44:02;;;;;;;43.33;24.23;;;;;;;7.41;100.00;100160.97;5073933;28;20078;-70
2021/12/29 01:46:27;;;;;;;41.17;22.67;;;;;;;7.46;100.00;100164.53;5073748;28;20386;-70
2021/12/29 01:48:53;;;;;;;43.35;23.65;;;;;;;7.39;100.00;100162.72;5074195;28;20100;-70
2021/12/29 01:51:20;;;;;;;43.55;25.02;;;;;;;7.40;100.00;100165.38;5073891;28;20116;-70
2021/12/29 01:53:50;;;;;;;42.45;24.65;;;;;;;7.34;100.00;100149.56;5074255;28;20032;-70
2021/12/29 01:56:16;;;;;;;40.33;22.17;;;;;;;7.38;100.00;100174.09;5074376;28;20024;-70
2021/12/29 01:58:42;;;;;;;39.72;23.45;;;;;;;7.39;100.00;100182.00;5074168;28;20422;-70
2021/12/29 02:01:07;;;;;;;40.30;23.50;;;;;;;7.41;100.00;100182.00;5073893;28;20021;-70
2021/12/29 02:03:33;;;;;;;44.53;24.83;;;;;;;7.36;100.00;100196.91;5074003;28;20024;-70
2021/12/29 02:05:58;;;;;;;40.72;23.95;;;;;;;7.38;100.00;100195.16;5073695;28;20530;-70
2021/12/29 02:08:24;;;;;;;42.78;25.63;;;;;;;7.33;100.00;100195.97;5073793;28;20016;-70
2021/12/29 02:10:53;;;;;;;42.95;23.88;;;;;;;7.37;100.00;100198.63;5073867;28;20032;-70
2021/12/29 02:13:19;;;;;;;41.17;24.75;;;;;;;7.37;100.00;100183.75;5073970;28;20021;-70
2021/12/29 02:15:45;;;;;;;41.72;23.35;;;;;;;7.35;100.00;100197.75;5073726;28;20020;-70
2021/12/29 02:18:15;;;;;;;42.03;24.17;;;;;;;7.29;100.00;100204.72;5073726;28;20039;-70
2021/12/29 02:20:44;;;;;;;42.00;24.83;;;;;;;7.32;100.00;100217.91;5073181;28;20031;-70
2021/12/29 02:23:17;;;;;;;43.38;24.42;;;;;;;7.34;100.00;100212.66;5073267;28;20048;-70
2021/12/29 02:25:49;;;;;;;44.85;26.08;;;;;;;7.29;100.00;100215.22;5070413;28;20024;-70
2021/12/29 02:28:24;;;;;;;44.45;25.30;;;;;;;7.30;100.00;100205.63;5073795;28;20016;-70
2021/12/29 02:30:50;;;;;;;46.65;26.73;;;;;;;7.28;100.00;100218.75;5073135;28;20032;-70
2021/12/29 02:33:16;;;;;;;45.63;24.33;;;;;;;7.31;100.00;100215.25;5073381;28;20021;-70
2021/12/29 02:35:43;;;;;;;46.63;26.48;;;;;;;7.26;100.00;100209.94;5073575;28;20103;-70
2021/12/29 02:38:19;;;;;;;45.38;26.52;;;;;;;7.33;100.00;100216.16;5073230;28;20534;-70
2021/12/29 02:40:48;;;;;;;49.20;27.00;;;;;;;7.26;100.00;100209.94;5070118;28;20044;-70
2021/12/29 02:43:19;;;;;;;46.65;27.40;;;;;;;7.31;100.00;100224.03;5073266;28;20025;-70
2021/12/29 02:45:49;;;;;;;45.70;27.08;;;;;;;7.32;100.00;100225.81;5073089;28;20028;-70
2021/12/29 02:48:14;;;;;;;46.15;26.98;;;;;;;7.25;100.00;100224.00;5072941;28;20020;-71
2021/12/29 02:50:41;;;;;;;45.90;27.55;;;;;;;7.30;100.00;100222.25;5072984;28;20028;-70
2021/12/29 02:53:07;;;;;;;45.95;26.52;;;;;;;7.23;100.00;100217.81;5069150;28;20381;-70
2021/12/29 02:55:32;;;;;;;49.35;26.05;;;;;;;7.22;100.00;100205.53;5072683;28;20025;-70
2021/12/29 02:57:57;;;;;;;47.60;28.05;;;;;;;7.19;100.00;100217.78;5072015;28;20372;-70
2021/12/29 03:00:23;;;;;;;47.60;24.73;;;;;;;7.24;100.00;100226.59;5072927;28;20051;-69
2021/12/29 03:02:48;;;;;;;45.63;27.20;;;;;;;7.22;100.00;100229.19;5072739;28;20105;-69
2021/12/29 03:05:13;;;;;;;48.15;26.10;;;;;;;7.21;100.00;100237.97;5072945;28;20376;-70
2021/12/29 03:07:39;;;;;;;47.60;27.58;;;;;;;7.15;100.00;100230.03;5072750;28;20064;-69
2021/12/29 03:10:04;;;;;;;45.70;25.88;;;;;;;7.13;100.00;100248.41;5072886;28;20062;-70
2021/12/29 03:12:30;;;;;;;46.08;25.85;;;;;;;7.11;100.00;100250.16;5072674;28;20041;-69
2021/12/29 03:14:57;;;;;;;49.83;25.63;;;;;;;7.11;100.00;100255.41;5072673;28;20124;-69
2021/12/29 03:17:23;;;;;;;48.58;28.13;;;;;;;7.11;100.00;100268.53;5072293;28;20502;-70
2021/12/29 03:19:49;;;;;;;49.25;27.23;;;;;;;7.13;100.00;100272.06;5072816;28;20029;-70
2021/12/29 03:22:14;;;;;;;51.28;27.52;;;;;;;7.10;100.00;100268.53;5072363;28;20064;-70
2021/12/29 03:24:40;;;;;;;51.67;28.63;;;;;;;7.10;100.00;100276.41;5072533;28;20081;-70
2021/12/29 03:27:06;;;;;;;53.63;29.52;;;;;;;7.10;100.00;100281.69;5072774;28;20067;-70
2021/12/29 03:29:31;;;;;;;55.60;30.65;;;;;;;7.10;100.00;100284.31;5072351;28;20033;-70
2021/12/29 03:31:59;;;;;;;52.33;30.48;;;;;;;7.09;100.00;100288.69;5072280;28;20158;-70
2021/12/29 03:34:24;;;;;;;52.28;27.90;;;;;;;7.10;100.00;100294.81;5072811;28;20032;-70
2021/12/29 03:36:50;;;;;;;53.30;29.48;;;;;;;7.08;100.00;100301.81;5072417;28;20024;-69
2021/12/29 03:39:16;;;;;;;50.40;28.50;;;;;;;7.05;100.00;100294.78;5072336;28;20021;-70
2021/12/29 03:41:42;;;;;;;49.65;27.90;;;;;;;7.06;100.00;100295.66;5072463;28;20024;-70
2021/12/29 03:44:07;;;;;;;53.88;28.45;;;;;;;7.08;100.00;100299.19;5072305;28;20036;-69
2021/12/29 03:46:33;;;;;;;47.97;26.95;;;;;;;7.07;100.00;100311.44;5072183;28;20036;-69
2021/12/29 03:48:59;;;;;;;51.13;27.77;;;;;;;7.08;100.00;100309.72;5072427;28;20099;-69
2021/12/29 03:51:25;;;;;;;51.83;27.15;;;;;;;7.10;100.00;100311.47;5072198;28;20128;-70
2021/12/29 03:53:50;;;;;;;50.28;26.73;;;;;;;7.05;100.00;100317.53;5072430;28;20028;-70
2021/12/29 03:56:16;;;;;;;53.35;27.17;;;;;;;7.05;100.00;100317.53;5072410;28;20020;-70
2021/12/29 03:58:44;;;;;;;51.55;27.42;;;;;;;7.03;100.00;100324.53;5070863;28;20035;-69
2021/12/29 04:01:11;;;;;;;57.05;29.48;;;;;;;7.02;100.00;100335.91;5068354;28;20066;-70
2021/12/29 04:03:37;;;;;;;52.45;27.08;;;;;;;7.01;100.00;100326.28;5072218;28;20029;-69
2021/12/29 04:06:02;;;;;;;52.78;27.75;;;;;;;7.03;100.00;100332.41;5072283;28;20107;-70
2021/12/29 04:08:29;;;;;;;54.35;26.60;;;;;;;7.01;100.00;100331.53;5074069;28;20021;-69
2021/12/29 04:10:54;;;;;;;50.85;27.42;;;;;;;7.02;100.00;100330.66;5076060;28;20028;-70
2021/12/29 04:13:19;;;;;;;50.85;28.35;;;;;;;6.99;100.00;100328.88;5075968;28;20082;-70
2021/12/29 04:15:45;;;;;;;52.22;27.60;;;;;;;6.98;100.00;100324.50;5076056;28;20020;-70
2021/12/29 04:18:26;;;;;;;56.35;29.65;;;;;;;6.97;100.00;100339.38;5075777;28;20016;-69
2021/12/29 04:20:57;;;;;;;52.42;28.35;;;;;;;6.97;100.00;100338.47;5073791;28;20017;-69
2021/12/29 04:23:27;;;;;;;55.47;29.02;;;;;;;6.97;100.00;100335.84;5075521;28;20124;-70
2021/12/29 04:25:54;;;;;;;56.03;28.10;;;;;;;6.98;100.00;100350.78;5075886;28;20383;-69
2021/12/29 04:28:23;;;;;;;50.67;27.55;;;;;;;7.01;100.00;100331.53;5075923;28;20144;-69
2021/12/29 04:30:50;;;;;;;53.30;27.75;;;;;;;7.00;100.00;100343.78;5075621;28;20157;-69
2021/12/29 04:33:17;;;;;;;50.92;27.52;;;;;;;6.98;100.00;100363.91;5075614;28;20036;-70
2021/12/29 04:35:43;;;;;;;46.92;26.33;;;;;;;7.00;100.00;100366.56;5075636;28;20016;-69
2021/12/29 04:38:08;;;;;;;51.65;27.45;;;;;;;6.98;100.00;100362.16;5075835;28;20020;-69
2021/12/29 04:40:34;;;;;;;51.92;26.92;;;;;;;7.00;100.00;100370.06;5075603;28;20360;-70
2021/12/29 04:43:01;;;;;;;52.08;26.38;;;;;;;6.97;100.00;100370.94;5075534;28;20086;-69
2021/12/29 04:45:27;;;;;;;51.38;28.15;;;;;;;6.95;100.00;100383.16;5075133;28;20059;-69
2021/12/29 04:47:52;;;;;;;50.22;26.23;;;;;;;6.95;100.00;100384.91;5075428;28;20112;-69
2021/12/29 04:50:26;;;;;;;47.13;26.52;;;;;;;6.99;100.00;100384.09;5075280;28;20107;-70
2021/12/29 04:52:54;;;;;;;49.33;27.75;;;;;;;6.94;100.00;100391.88;5075248;28;20028;-69
2021/12/29 04:55:20;;;;;;;50.78;27.02;;;;;;;6.96;100.00;100397.16;5075126;28;20021;-70
2021/12/29 04:57:46;;;;;;;51.30;28.02;;;;;;;6.98;100.00;100398.06;5075592;28;20056;-69
2021/12/29 05:00:12;;;;;;;48.38;26.65;;;;;;;7.01;100.00;100406.00;5074920;28;20475;-69
2021/12/29 05:02:37;;;;;;;49.60;25.55;;;;;;;6.98;100.00;100398.94;5071116;28;20090;-69
2021/12/29 05:05:18;;;;;;;48.72;25.75;;;;;;;6.95;100.00;100404.16;5075227;28;20043;-70
2021/12/29 05:10:27;;;;;;;48.97;26.42;;;;;;;6.95;100.00;100408.56;5075076;28;20409;-70
2021/12/29 05:12:52;;;;;;;47.65;26.30;;;;;;;6.95;100.00;100398.03;5074743;28;20028;-70
2021/12/29 05:15:17;;;;;;;49.80;26.85;;;;;;;6.98;100.00;100392.81;5074922;28;20024;-70
2021/12/29 05:17:43;;;;;;;49.58;25.58;;;;;;;6.93;100.00;100405.91;5074802;28;20021;-71
2021/12/29 05:20:09;;;;;;;51.22;27.10;;;;;;;6.94;100.00;100406.78;5073765;28;20067;-70
2021/12/29 05:22:34;;;;;;;51.65;27.17;;;;;;;6.92;100.00;100406.75;5073059;28;20083;-70
2021/12/29 05:24:59;;;;;;;50.40;27.25;;;;;;;6.89;100.00;100406.72;5074740;28;20059;-70
2021/12/29 05:27:25;;;;;;;49.67;25.95;;;;;;;6.89;100.00;100409.34;5074545;28;20059;-71
2021/12/29 05:29:50;;;;;;;49.45;26.95;;;;;;;6.85;100.00;100407.53;5074890;28;20025;-71
2021/12/29 05:32:15;;;;;;;52.55;26.88;;;;;;;6.87;100.00;100418.06;5074319;28;20052;-70
2021/12/29 05:34:40;;;;;;;53.10;26.38;;;;;;;6.87;100.00;100416.31;5074425;28;20116;-70
2021/12/29 05:37:06;;;;;;;50.50;26.50;;;;;;;6.85;100.00;100418.06;5072866;28;20102;-71
2021/12/29 05:39:31;;;;;;;51.78;27.75;;;;;;;6.85;100.00;100423.31;5074270;28;20032;-70
2021/12/29 05:41:57;;;;;;;52.05;27.75;;;;;;;6.81;100.00;100418.88;5074493;28;20089;-70
2021/12/29 05:44:22;;;;;;;51.97;27.05;;;;;;;6.83;100.00;100429.41;5074054;28;20017;-70
2021/12/29 05:46:47;;;;;;;50.50;26.83;;;;;;;6.82;100.00;100423.28;5074099;28;20430;-70
2021/12/29 05:49:13;;;;;;;51.50;27.08;;;;;;;6.81;100.00;100429.38;5074477;28;20025;-70
2021/12/29 05:51:38;;;;;;;49.05;26.00;;;;;;;6.80;100.00;100427.59;5074057;28;20028;-71
2021/12/29 05:54:03;;;;;;;50.38;27.27;;;;;;;6.78;100.00;100422.34;5073949;28;20026;-69
2021/12/29 05:56:29;;;;;;;48.90;25.85;;;;;;;6.79;100.00;100428.50;5074106;28;20042;-71
2021/12/29 05:58:59;;;;;;;50.25;26.02;;;;;;;6.80;100.00;100425.88;5073800;28;20056;-70
2021/12/29 06:01:25;;;;;;;49.83;26.17;;;;;;;6.78;100.00;100421.47;5073858;28;20037;-71
2021/12/29 06:03:50;;;;;;;50.17;26.08;;;;;;;6.77;100.00;100425.84;5074015;28;20029;-70
2021/12/29 06:06:16;;;;;;;50.25;25.55;;;;;;;6.76;100.00;100421.44;5073726;28;20039;-70
2021/12/29 06:08:41;;;;;;;48.75;25.83;;;;;;;6.76;100.00;100433.72;5073717;28;20074;-70
2021/12/29 06:11:06;;;;;;;48.00;25.20;;;;;;;6.76;100.00;100428.47;5073825;28;20391;-69
2021/12/29 06:13:32;;;;;;;45.95;24.92;;;;;;;6.74;100.00;100433.69;5073623;28;20062;-69
2021/12/29 06:15:57;;;;;;;47.45;24.85;;;;;;;6.73;100.00;100444.19;5073403;28;20028;-69
2021/12/29 06:18:22;;;;;;;47.40;24.02;;;;;;;6.72;100.00;100445.91;5073578;28;20074;-69
2021/12/29 06:20:48;;;;;;;46.08;24.38;;;;;;;6.71;100.00;100457.28;5073631;28;20032;-71
2021/12/29 06:23:13;;;;;;;49.65;24.13;;;;;;;6.74;100.00;100464.31;5073536;28;20045;-69
2021/12/29 06:25:40;;;;;;;43.88;23.90;;;;;;;6.73;100.00;100473.09;5073464;28;20020;-70
2021/12/29 06:28:06;;;;;;;44.17;23.77;;;;;;;6.72;100.00;100474.81;5073345;28;20023;-70
2021/12/29 06:30:32;;;;;;;45.50;22.95;;;;;;;6.72;100.00;100466.94;5072983;28;20025;-70
2021/12/29 06:32:57;;;;;;;46.50;22.73;;;;;;;6.71;100.00;100472.16;5068349;28;20139;-70
2021/12/29 06:35:22;;;;;;;44.75;23.63;;;;;;;6.71;100.00;100472.16;5070312;28;20013;-70
2021/12/29 06:37:48;;;;;;;43.75;23.33;;;;;;;6.69;100.00;100476.53;5071252;28;20024;-71
2021/12/29 06:40:14;;;;;;;41.95;22.27;;;;;;;6.70;100.00;100478.25;5071365;28;20417;-70
2021/12/29 06:42:39;;;;;;;42.13;23.17;;;;;;;6.69;100.00;100484.41;5071002;28;20217;-70
2021/12/29 06:45:06;;;;;;;43.28;23.40;;;;;;;6.68;100.00;100482.63;5071559;28;20024;-70
2021/12/29 06:47:31;;;;;;;41.47;22.52;;;;;;;6.68;100.00;100477.38;5071548;28;20039;-69
2021/12/29 06:49:57;;;;;;;38.05;21.92;;;;;;;6.69;100.00;100490.53;5071577;28;20024;-68
2021/12/29 06:52:22;;;;;;;41.10;22.85;;;;;;;6.68;100.00;100486.13;5071114;28;20467;-69
2021/12/29 06:54:48;;;;;;;42.25;21.55;;;;;;;6.70;100.00;100488.78;5070512;28;20589;-69
2021/12/29 06:57:14;;;;;;;38.20;22.33;;;;;;;6.69;100.00;100492.28;5071449;28;20028;-70
2021/12/29 06:59:39;;;;;;;40.65;21.58;;;;;;;6.68;100.00;100483.50;5071956;28;20047;-71
2021/12/29 07:02:05;;;;;;;43.58;22.10;;;;;;;6.68;100.00;100482.63;5070068;28;20499;-71
2021/12/29 07:04:30;;;;;;;40.22;22.27;;;;;;;6.69;100.00;100485.28;5071327;28;20024;-70
2021/12/29 07:06:57;;;;;;;37.85;21.02;;;;;;;6.69;100.00;100489.66;5069320;28;20032;-70
2021/12/29 07:09:23;;;;;;;38.03;21.27;;;;;;;6.69;100.00;100494.91;5071050;28;20051;-69
2021/12/29 07:11:48;;;;;;;38.05;21.02;;;;;;;6.70;100.00;100507.16;5070099;28;20029;-75
2021/12/29 07:14:14;;;;;;;38.17;21.70;;;;;;;6.70;100.00;100501.91;5070961;28;20100;-70
2021/12/29 07:16:44;;;;;;;41.00;21.73;;;;;;;6.68;100.00;100504.50;5070807;28;20033;-70
2021/12/29 07:19:10;;;;;;;39.78;21.80;;;;;;;6.71;100.00;100519.44;5070854;28;20021;-72
2021/12/29 07:21:35;;;;;;;36.70;21.40;;;;;;;6.72;100.00;100515.97;5071217;28;20025;-71
2021/12/29 07:24:00;;;;;;;37.25;21.00;;;;;;;6.72;100.00;100516.84;5071038;28;20051;-72
2021/12/29 07:26:26;;;;;;;38.22;20.90;;;;;;;6.73;100.00;100525.63;5071291;28;20495;-71
2021/12/29 07:28:52;;;;;;;38.78;21.33;;;;;;;6.75;100.00;100521.25;5070558;28;20081;-71
2021/12/29 07:31:19;;;;;;;39.58;21.60;;;;;;;6.78;100.00;100537.06;5070580;28;20036;-72
2021/12/29 07:33:45;;;;;;;40.05;21.88;;;;;;;6.75;100.00;100532.66;5069881;28;20376;-72
2021/12/29 07:36:11;;;;;;;38.53;21.70;;;;;;;6.75;100.00;100537.91;5071177;28;20036;-72
2021/12/29 07:38:38;;;;;;;35.42;20.92;;;;;;;6.74;100.00;100551.00;5071172;28;20032;-72
2021/12/29 07:41:04;;;;;;;36.92;21.08;;;;;;;6.73;100.00;100554.53;5070302;28;20354;-71
2021/12/29 07:43:29;;;;;;;38.45;21.17;;;;;;;6.74;100.00;100545.75;5072628;28;20444;-71
2021/12/29 07:45:55;;;;;;;36.15;20.42;;;;;;;6.72;100.00;100552.75;5075025;28;20021;-71
2021/12/29 07:48:26;;;;;;;35.85;20.27;;;;;;;6.73;100.00;100551.91;5074987;28;20383;-70
2021/12/29 07:50:52;;;;;;;38.03;20.17;;;;;;;6.72;100.00;100540.47;5074589;28;20032;-69
2021/12/29 07:53:18;;;;;;;38.10;20.75;;;;;;;6.71;100.00;100538.72;5075204;28;20478;-68
2021/12/29 07:55:43;;;;;;;39.33;20.85;;;;;;;6.70;100.00;100543.94;5074661;28;20020;-73
2021/12/29 07:58:08;;;;;;;35.30;19.98;;;;;;;6.70;100.00;100541.31;5074759;28;20479;-72
2021/12/29 08:00:34;;;;;;;36.55;19.00;;;;;;;6.71;100.00;100536.06;5074562;28;20017;-72
2021/12/29 08:02:59;;;;;;;35.10;19.75;;;;;;;6.70;100.00;100544.84;5075381;28;20032;-70
2021/12/29 08:05:24;;;;;;;35.30;18.92;;;;;;;6.71;100.00;100551.84;5074498;28;20032;-69
2021/12/29 08:07:50;;;;;;;35.55;19.67;;;;;;;6.71;100.00;100546.59;5074479;28;20028;-70
2021/12/29 08:10:16;;;;;;;34.33;19.15;;;;;;;6.71;100.00;100538.72;5074351;28;20379;-72
2021/12/29 08:12:41;;;;;;;35.72;18.33;;;;;;;6.71;100.00;100548.34;5074244;28;20039;-70
2021/12/29 08:15:07;;;;;;;34.80;19.20;;;;;;;6.73;100.00;100554.53;5074846;28;20069;-70
2021/12/29 08:17:33;;;;;;;38.78;19.83;;;;;;;6.73;100.00;100559.78;5074137;28;20395;-69
2021/12/29 08:20:00;;;;;;;33.78;18.90;;;;;;;6.72;100.00;100548.38;5074130;28;20029;-71
2021/12/29 08:22:25;;;;;;;36.22;19.33;;;;;;;6.73;100.00;100538.75;5073966;28;20040;-70
2021/12/29 08:24:51;;;;;;;33.58;19.38;;;;;;;6.75;100.00;100547.53;5070933;28;20387;-71
2021/12/29 08:27:16;;;;;;;36.65;20.27;;;;;;;6.73;100.00;100552.78;5072246;28;20032;-67
2021/12/29 08:29:41;;;;;;;38.95;21.30;;;;;;;6.74;100.00;100548.38;5070742;28;20409;-69
2021/12/29 08:32:07;;;;;;;37.35;21.77;;;;;;;6.74;100.00;100554.53;5073571;28;20394;-69
2021/12/29 08:34:32;;;;;;;35.08;20.30;;;;;;;6.76;100.00;100559.81;5072537;28;20027;-72
2021/12/29 08:36:58;;;;;;;38.05;21.15;;;;;;;6.76;100.00;100565.94;5073885;28;20036;-71
2021/12/29 08:39:25;;;;;;;38.08;21.52;;;;;;;6.75;100.00;100553.66;5073452;28;20025;-71
2021/12/29 08:41:51;;;;;;;38.38;21.17;;;;;;;6.76;100.00;100550.19;5072513;28;20032;-69
2021/12/29 08:44:17;;;;;;;39.47;22.05;;;;;;;6.77;100.00;100557.22;5072217;28;20031;-71
2021/12/29 08:46:45;;;;;;;37.60;21.13;;;;;;;6.79;100.00;100550.22;5073293;28;20107;-69
2021/12/29 08:49:12;;;;;;;37.17;21.75;;;;;;;6.80;100.00;100545.84;5072909;28;20029;-69
2021/12/29 08:51:38;;;;;;;41.17;22.75;;;;;;;6.82;100.00;100556.41;5074117;28;20128;-70
2021/12/29 08:54:03;;;;;;;38.60;22.00;;;;;;;6.83;100.00;100561.69;5073731;28;20059;-70
2021/12/29 08:56:28;;;;;;;38.78;22.27;;;;;;;6.83;100.00;100551.16;5073360;28;20070;-70
2021/12/29 08:58:54;;;;;;;37.88;22.27;;;;;;;6.82;100.00;100548.53;5074921;28;20531;-70
2021/12/29 09:01:21;;;;;;;36.47;22.10;;;;;;;6.82;100.00;100559.91;5074768;28;20028;-70
2021/12/29 09:03:48;;;;;;;33.38;20.55;;;;;;;6.84;100.00;100558.16;5074967;28;20363;-70
2021/12/29 09:06:15;;;;;;;34.78;21.20;;;;;;;6.86;100.00;100564.34;5074991;28;20028;-69
2021/12/29 09:08:40;;;;;;;33.67;20.40;;;;;;;6.88;100.00;100567.00;5073454;28;20506;-69
2021/12/29 09:11:07;;;;;;;36.42;21.38;;;;;;;6.88;100.00;100552.09;5074477;28;20040;-69
2021/12/29 09:13:32;;;;;;;34.60;21.00;;;;;;;6.95;100.00;100559.22;5075039;28;20027;-70
2021/12/29 09:15:58;;;;;;;35.55;20.55;;;;;;;6.97;100.00;100554.91;5070627;28;20021;-69
2021/12/29 09:18:25;;;;;;;34.63;20.40;;;;;;;7.02;100.00;100559.31;5074704;28;20028;-69
2021/12/29 09:20:52;;;;;;;32.65;19.95;;;;;;;7.06;100.00;100554.13;5074939;28;20029;-69
2021/12/29 09:23:19;;;;;;;34.08;19.15;;;;;;;7.06;100.00;100542.72;5074603;28;20091;-70
2021/12/29 09:25:46;;;;;;;33.80;19.77;;;;;;;7.11;100.00;100548.94;5074464;28;20043;-70
2021/12/29 09:28:16;;;;;;;32.42;18.77;;;;;;;7.17;100.00;100546.38;5074773;28;20031;-70
2021/12/29 09:30:44;;;;;;;31.55;18.30;;;;;;;7.27;100.00;100543.00;5074435;28;20044;-70
2021/12/29 09:33:10;;;;;;;31.58;17.30;;;;;;;7.35;100.00;100536.97;5071003;28;20276;-72
2021/12/29 09:35:37;;;;;;;32.50;17.48;;;;;;;7.42;100.00;100539.69;5071756;28;20021;-70
2021/12/29 09:38:04;;;;;;;31.63;17.55;;;;;;;7.43;100.00;100533.56;5073237;28;20039;-70
2021/12/29 09:40:29;;;;;;;28.83;17.45;;;;;;;7.47;100.00;100545.91;5072902;28;20383;-74
2021/12/29 09:42:55;;;;;;;30.08;16.75;;;;;;;7.55;100.00;100542.47;5072778;28;20108;-73
2021/12/29 09:45:21;;;;;;;29.38;16.70;;;;;;;7.61;100.00;100548.69;5071487;28;20036;-73
2021/12/29 09:47:47;;;;;;;30.40;16.77;;;;;;;7.74;100.00;100548.84;5072485;28;20025;-71
2021/12/29 09:50:15;;;;;;;28.38;15.70;;;;;;;7.78;100.00;100540.13;5072781;28;20060;-71
2021/12/29 09:52:42;;;;;;;29.05;14.88;;;;;;;7.71;100.00;100536.53;5072487;28;20033;-70
2021/12/29 09:55:12;;;;;;;27.17;14.65;;;;;;;7.64;100.00;100518.91;5070855;28;20472;-73
2021/12/29 09:57:45;;;;;;;26.95;14.50;;;;;;;7.57;100.00;100510.06;5072409;28;20024;-73
2021/12/29 10:00:19;;;;;;;27.77;14.05;;;;;;;7.59;100.00;100524.13;5071055;28;20025;-73
2021/12/29 10:02:44;;;;;;;28.52;13.85;;;;;;;7.60;100.00;100532.88;5072623;28;20079;-72
2021/12/29 10:05:10;;;;;;;26.77;13.02;;;;;;;7.68;100.00;100524.22;5071772;28;20487;-72
2021/12/29 10:07:35;;;;;;;26.92;13.05;;;;;;;7.71;100.00;100533.03;5072538;28;20111;-71
2021/12/29 10:10:02;;;;;;;27.08;13.23;;;;;;;7.81;100.00;100538.38;5072294;28;20025;-71
2021/12/29 10:12:27;;;;;;;27.10;12.65;;;;;;;7.89;100.00;100543.72;5072338;28;20433;-71
2021/12/29 10:14:59;;;;;;;27.17;12.75;;;;;;;7.94;100.00;100544.66;5072194;28;20111;-71
2021/12/29 10:17:26;;;;;;;26.13;12.68;;;;;;;8.00;100.00;100533.31;5071831;28;20116;-72
2021/12/29 10:20:03;;;;;;;27.25;12.35;;;;;;;8.00;100.00;100536.81;5071983;28;20131;-72
2021/12/29 10:22:28;;;;;;;26.25;11.82;;;;;;;7.97;100.00;100534.16;5071640;28;20033;-70
2021/12/29 10:25:10;;;;;;;27.38;12.45;;;;;;;8.05;100.00;100533.38;5072463;28;20043;-69
2021/12/29 10:27:37;;;;;;;26.00;12.13;;;;;;;8.00;100.00;100515.75;5070983;28;20013;-71
2021/12/29 10:30:26;;;;;;;24.48;10.82;;;;;;;8.01;100.00;100509.66;5068905;28;20048;-70
2021/12/29 10:32:55;;;;;;;25.20;11.55;;;;;;;7.95;100.00;100514.84;5070854;28;20028;-70
2021/12/29 10:35:20;;;;;;;25.38;11.02;;;;;;;7.91;100.00;100499.03;5068532;28;20045;-71
2021/12/29 10:37:46;;;;;;;23.40;10.38;;;;;;;7.88;100.00;100484.06;5071845;28;20383;-71
2021/12/29 10:40:15;;;;;;;22.85;9.80;;;;;;;7.88;100.00;100499.88;5071662;28;20059;-71
2021/12/29 10:42:53;;;;;;;25.17;9.90;;;;;;;7.93;100.00;100499.91;5071910;28;20031;-71
2021/12/29 10:45:28;;;;;;;25.52;9.80;;;;;;;7.95;100.00;100496.44;5071323;28;20081;-72
2021/12/29 10:47:54;;;;;;;25.02;10.35;;;;;;;8.00;100.00;100497.34;5071256;28;20474;-72
2021/12/29 10:50:19;;;;;;;24.50;9.60;;;;;;;8.05;100.00;100496.50;5071213;28;20120;-72
2021/12/29 10:52:48;;;;;;;24.92;9.35;;;;;;;8.03;100.00;100494.72;5071417;28;20032;-71
2021/12/29 10:55:21;;;;;;;25.30;9.40;;;;;;;8.01;100.00;100496.47;5069851;28;20021;-71
2021/12/29 10:58:02;;;;;;;25.60;9.50;;;;;;;7.99;100.00;100492.97;5071393;28;20036;-71
2021/12/29 11:00:28;;;;;;;24.00;9.25;;;;;;;7.96;100.00;100507.84;5070608;28;20386;-71
2021/12/29 11:02:57;;;;;;;27.15;9.68;;;;;;;7.96;100.00;100508.69;5070710;28;20085;-71
2021/12/29 11:05:22;;;;;;;25.77;8.90;;;;;;;7.92;100.00;100528.00;5072423;28;20031;-71
2021/12/29 11:07:47;;;;;;;25.50;8.88;;;;;;;7.92;100.00;100533.25;5072162;28;20032;-71
2021/12/29 11:10:14;;;;;;;25.20;9.52;;;;;;;7.95;100.00;100520.13;5072535;28;20028;-71